Time;durP1;ratioP1;P1;durP2;ratioP2;P2;SDS_P1;SDS_P2;PMS_P1;PMS_P2;Temp;Humidity;BMP_temperature;BMP_pressure;BME280_temperature;BME280_humidity;BME280_pressure;Samples;Min_cycle;Max_cycle;Signal;HPM_P1;HPM_P2
2022/03/29 00:01:55;;;;;;;31.23;12.40;;;12.30;99.90;;;;;;6306985;22;20011;-73
2022/03/29 00:04:22;;;;;;;29.77;11.65;;;12.40;99.90;;;;;;6306403;22;20003;-73
2022/03/29 00:06:50;;;;;;;32.63;12.80;;;12.30;99.90;;;;;;6305268;22;20088;-73
2022/03/29 00:09:16;;;;;;;27.63;11.80;;;12.30;99.90;;;;;;6306924;22;20003;-73
2022/03/29 00:11:42;;;;;;;28.45;12.20;;;12.30;99.90;;;;;;6306095;22;20004;-73
2022/03/29 00:14:08;;;;;;;30.58;12.27;;;12.20;99.90;;;;;;6305650;22;20007;-73
2022/03/29 00:16:35;;;;;;;30.55;11.57;;;12.20;99.90;;;;;;6306997;22;20084;-75
2022/03/29 00:19:01;;;;;;;29.77;12.57;;;12.20;99.90;;;;;;6277508;22;20014;-75
2022/03/29 00:21:27;;;;;;;31.50;11.65;;;12.10;99.90;;;;;;6306396;22;20078;-75
2022/03/29 00:23:54;;;;;;;24.95;11.38;;;12.00;99.90;;;;;;6277791;22;20384;-75
2022/03/29 00:26:19;;;;;;;23.65;11.25;;;12.10;99.90;;;;;;6307058;22;20586;-75
2022/03/29 00:28:47;;;;;;;27.52;11.70;;;12.00;99.90;;;;;;6306945;22;20052;-75
2022/03/29 00:31:16;;;;;;;26.70;11.43;;;12.00;99.90;;;;;;6305450;22;19999;-75
2022/03/29 00:33:43;;;;;;;28.95;10.85;;;12.00;99.90;;;;;;6279027;22;20421;-74
2022/03/29 00:36:09;;;;;;;33.55;10.98;;;12.00;99.90;;;;;;6306338;22;20448;-75
2022/03/29 00:38:34;;;;;;;33.50;13.02;;;11.90;99.90;;;;;;6308562;22;19999;-74
2022/03/29 00:41:01;;;;;;;24.23;11.55;;;11.90;99.90;;;;;;6279475;22;20061;-74
2022/03/29 00:43:26;;;;;;;32.72;12.38;;;11.80;99.90;;;;;;6308886;22;20424;-74
2022/03/29 00:45:52;;;;;;;27.17;11.40;;;11.80;99.90;;;;;;6308871;22;20004;-74
2022/03/29 00:48:18;;;;;;;29.45;12.35;;;11.80;99.90;;;;;;6308995;22;20023;-74
2022/03/29 00:50:45;;;;;;;26.70;12.02;;;11.80;99.90;;;;;;6306786;22;20424;-74
2022/03/29 00:53:11;;;;;;;29.73;13.48;;;11.80;99.90;;;;;;6308664;22;20064;-74
2022/03/29 00:55:38;;;;;;;29.63;12.60;;;11.70;99.90;;;;;;6306880;22;19999;-74
2022/03/29 00:58:07;;;;;;;24.33;12.13;;;11.80;99.90;;;;;;6308813;22;19999;-74
2022/03/29 01:00:35;;;;;;;34.45;13.48;;;11.70;99.90;;;;;;6306690;22;20005;-74
2022/03/29 01:03:03;;;;;;;28.60;12.38;;;11.70;99.90;;;;;;6308391;22;20007;-74
2022/03/29 01:05:32;;;;;;;29.40;13.10;;;11.70;99.90;;;;;;6306992;22;20011;-74
2022/03/29 01:07:59;;;;;;;31.65;12.38;;;11.60;99.90;;;;;;6308202;22;20126;-74
2022/03/29 01:10:25;;;;;;;35.08;12.77;;;11.60;99.90;;;;;;6279460;22;20019;-74
2022/03/29 01:12:52;;;;;;;29.63;13.57;;;11.60;99.90;;;;;;6280429;22;20090;-74
2022/03/29 01:15:19;;;;;;;36.15;14.15;;;11.60;99.90;;;;;;6281055;22;20305;-74
2022/03/29 01:17:47;;;;;;;28.60;13.45;;;11.60;99.90;;;;;;6308550;22;19999;-75
2022/03/29 01:20:18;;;;;;;33.38;13.93;;;11.60;99.90;;;;;;6306800;22;20002;-75
2022/03/29 01:22:49;;;;;;;34.75;14.02;;;11.60;99.90;;;;;;6308764;22;20083;-74
2022/03/29 01:25:19;;;;;;;31.52;13.88;;;11.60;99.90;;;;;;6307221;22;20030;-74
2022/03/29 01:27:48;;;;;;;35.75;14.93;;;11.60;99.90;;;;;;6280386;22;20003;-74
2022/03/29 01:30:14;;;;;;;35.28;14.93;;;11.60;99.90;;;;;;6306677;22;20010;-75
2022/03/29 01:32:50;;;;;;;41.05;18.13;;;11.60;99.90;;;;;;6280822;22;20007;-74
2022/03/29 01:35:18;;;;;;;36.65;16.55;;;11.60;99.90;;;;;;6306317;22;20006;-74
2022/03/29 01:37:43;;;;;;;36.97;16.27;;;11.70;99.90;;;;;;6280899;22;20056;-74
2022/03/29 01:40:13;;;;;;;32.78;16.05;;;11.60;99.90;;;;;;6306717;22;19999;-74
2022/03/29 01:42:43;;;;;;;35.05;17.70;;;11.60;99.90;;;;;;6308497;22;20006;-74
2022/03/29 01:45:09;;;;;;;40.92;16.52;;;11.60;99.90;;;;;;6307206;22;20074;-74
2022/03/29 01:47:35;;;;;;;38.38;16.27;;;11.50;99.90;;;;;;6308091;22;20003;-74
2022/03/29 01:50:01;;;;;;;32.83;16.65;;;11.50;99.90;;;;;;6305464;22;20010;-74
2022/03/29 01:52:27;;;;;;;38.50;17.05;;;11.50;99.90;;;;;;6280311;22;20004;-73
2022/03/29 01:54:53;;;;;;;39.42;17.00;;;11.50;99.90;;;;;;6306543;22;19999;-74
2022/03/29 01:57:24;;;;;;;41.92;17.52;;;11.50;99.90;;;;;;6307737;22;19995;-73
2022/03/29 02:02:34;;;;;;;40.67;19.00;;;11.50;99.90;;;;;;6307654;22;20068;-74
2022/03/29 02:05:01;;;;;;;39.15;18.92;;;11.50;99.90;;;;;;6306484;22;20082;-74
2022/03/29 02:07:26;;;;;;;39.67;16.80;;;11.50;99.90;;;;;;6308210;22;20075;-73
2022/03/29 02:09:52;;;;;;;32.78;17.27;;;11.50;99.90;;;;;;6308211;22;20088;-74
2022/03/29 02:12:17;;;;;;;33.13;17.23;;;11.40;99.90;;;;;;6280736;22;20329;-74
2022/03/29 02:14:43;;;;;;;38.75;16.70;;;11.50;99.90;;;;;;6307704;22;20388;-74
2022/03/29 02:17:09;;;;;;;40.53;18.25;;;11.50;99.90;;;;;;6308006;22;20421;-74
2022/03/29 02:19:34;;;;;;;37.63;18.58;;;11.40;99.90;;;;;;6307704;22;20025;-74
2022/03/29 02:22:00;;;;;;;40.17;18.33;;;11.40;99.90;;;;;;6280806;22;20015;-74
2022/03/29 02:24:26;;;;;;;40.00;19.85;;;11.40;99.90;;;;;;6280951;22;20408;-73
2022/03/29 02:26:51;;;;;;;39.92;18.25;;;11.40;99.90;;;;;;6308088;22;20006;-73
2022/03/29 02:29:17;;;;;;;42.42;18.35;;;11.30;99.90;;;;;;6280810;22;20003;-74
2022/03/29 02:31:43;;;;;;;49.47;21.15;;;11.40;99.90;;;;;;6307753;22;20003;-74
2022/03/29 02:34:08;;;;;;;36.90;18.77;;;11.30;99.90;;;;;;6280573;22;20014;-73
2022/03/29 02:36:34;;;;;;;45.97;21.10;;;11.40;99.90;;;;;;6307285;22;20477;-73
2022/03/29 02:38:59;;;;;;;38.65;19.73;;;11.40;99.90;;;;;;6308252;22;19999;-74
2022/03/29 02:41:25;;;;;;;43.50;19.48;;;11.30;99.90;;;;;;6307483;22;20086;-74
2022/03/29 02:43:51;;;;;;;43.47;20.20;;;11.30;99.90;;;;;;6307923;22;20074;-73
2022/03/29 02:46:16;;;;;;;47.08;20.65;;;11.30;99.90;;;;;;6307930;22;20006;-74
2022/03/29 02:48:42;;;;;;;45.67;20.77;;;11.30;99.90;;;;;;6307374;22;20588;-73
2022/03/29 02:51:08;;;;;;;51.33;20.77;;;11.20;99.90;;;;;;6308046;22;20027;-74
2022/03/29 02:53:33;;;;;;;47.28;21.08;;;11.20;99.90;;;;;;6307818;22;20004;-74
2022/03/29 02:55:59;;;;;;;44.25;22.60;;;11.10;99.90;;;;;;6307679;22;20004;-73
2022/03/29 02:58:25;;;;;;;44.70;23.00;;;11.10;99.90;;;;;;6307646;22;20026;-73
2022/03/29 03:00:51;;;;;;;54.38;22.77;;;11.20;99.90;;;;;;6279818;22;20015;-74
2022/03/29 03:03:17;;;;;;;42.92;22.33;;;11.10;99.90;;;;;;6308001;22;19999;-74
2022/03/29 03:05:43;;;;;;;44.85;22.90;;;11.10;99.90;;;;;;6307718;22;20010;-73
2022/03/29 03:08:09;;;;;;;42.35;22.77;;;11.10;99.90;;;;;;6280140;22;20003;-73
2022/03/29 03:10:34;;;;;;;48.13;24.08;;;11.20;99.90;;;;;;6307786;22;20003;-74
2022/03/29 03:13:01;;;;;;;49.80;24.70;;;11.20;99.90;;;;;;6307602;22;20064;-74
2022/03/29 03:15:27;;;;;;;47.90;24.92;;;11.20;99.90;;;;;;6307077;22;20335;-74
2022/03/29 03:17:54;;;;;;;50.95;24.13;;;11.20;99.90;;;;;;6307204;22;19995;-74
2022/03/29 03:20:21;;;;;;;48.92;25.45;;;11.20;99.90;;;;;;6307988;22;20421;-74
2022/03/29 03:22:47;;;;;;;51.80;26.13;;;11.20;99.90;;;;;;6307599;22;20367;-74
2022/03/29 03:25:13;;;;;;;47.45;24.48;;;11.00;99.90;;;;;;6307364;22;19999;-74
2022/03/29 03:27:41;;;;;;;51.42;25.83;;;11.00;99.90;;;;;;6307885;22;20003;-73
2022/03/29 03:30:10;;;;;;;53.95;27.70;;;11.10;99.90;;;;;;6279870;22;20031;-74
2022/03/29 03:32:36;;;;;;;51.80;26.73;;;11.20;99.90;;;;;;6306739;22;20006;-74
2022/03/29 03:35:02;;;;;;;52.45;26.85;;;11.20;99.90;;;;;;6307357;22;19999;-74
2022/03/29 03:37:28;;;;;;;53.75;28.27;;;11.10;99.90;;;;;;6307176;22;20005;-73
2022/03/29 03:39:54;;;;;;;49.35;26.92;;;11.00;99.90;;;;;;6307329;22;20006;-74
2022/03/29 03:42:19;;;;;;;54.40;27.08;;;11.00;99.90;;;;;;6307344;22;20003;-73
2022/03/29 03:44:45;;;;;;;51.70;25.65;;;11.00;99.90;;;;;;6306955;22;20030;-74
2022/03/29 03:47:11;;;;;;;53.25;26.67;;;11.10;99.90;;;;;;6307363;22;19999;-74
2022/03/29 03:49:38;;;;;;;54.60;29.08;;;11.10;99.90;;;;;;6307214;22;20003;-74
2022/03/29 03:52:05;;;;;;;54.13;26.92;;;11.10;99.90;;;;;;6307403;22;20424;-74
2022/03/29 03:54:35;;;;;;;47.15;26.42;;;11.00;99.90;;;;;;6279615;22;20003;-74
2022/03/29 03:57:01;;;;;;;54.08;27.13;;;10.90;99.90;;;;;;6307468;22;20000;-74
2022/03/29 03:59:26;;;;;;;52.63;27.88;;;11.00;99.90;;;;;;6307167;22;20049;-74
2022/03/29 04:01:52;;;;;;;58.75;28.20;;;11.00;99.90;;;;;;6307192;22;20038;-74
2022/03/29 04:04:18;;;;;;;52.03;29.80;;;11.00;99.90;;;;;;6307071;22;20867;-74
2022/03/29 04:06:43;;;;;;;54.65;27.88;;;11.00;99.90;;;;;;6306943;22;20006;-74
2022/03/29 04:09:09;;;;;;;56.45;30.30;;;11.00;99.90;;;;;;6307480;22;20003;-74
2022/03/29 04:11:35;;;;;;;57.10;29.25;;;11.00;99.90;;;;;;6306587;22;20015;-74
2022/03/29 04:14:01;;;;;;;56.22;28.25;;;11.00;99.90;;;;;;6306480;22;20011;-74
2022/03/29 04:16:27;;;;;;;57.67;28.90;;;11.00;99.90;;;;;;6279995;22;20302;-74
2022/03/29 04:18:53;;;;;;;53.05;27.98;;;10.60;99.90;;;;;;6307287;22;19999;-74
2022/03/29 04:21:19;;;;;;;50.67;28.55;;;10.70;99.90;;;;;;6307195;22;20364;-74
2022/03/29 04:23:44;;;;;;;50.08;30.00;;;10.80;99.90;;;;;;6307066;22;20328;-74
2022/03/29 04:26:10;;;;;;;53.63;29.83;;;10.70;99.90;;;;;;6306891;22;20007;-74
2022/03/29 04:28:36;;;;;;;55.72;28.08;;;10.60;99.90;;;;;;6307198;22;20055;-73
2022/03/29 04:31:02;;;;;;;51.08;28.25;;;10.50;99.90;;;;;;6305236;22;20482;-74
2022/03/29 04:33:28;;;;;;;54.00;30.63;;;10.60;99.90;;;;;;6306999;22;20485;-74
2022/03/29 04:35:54;;;;;;;54.38;29.92;;;10.70;99.90;;;;;;6306990;22;20049;-74
2022/03/29 04:38:21;;;;;;;53.80;31.40;;;10.60;99.90;;;;;;6307295;22;20023;-74
2022/03/29 04:40:47;;;;;;;58.88;30.48;;;10.70;99.90;;;;;;6304698;22;19996;-74
2022/03/29 04:43:13;;;;;;;57.13;31.88;;;10.70;99.90;;;;;;6306720;22;20007;-74
2022/03/29 04:45:38;;;;;;;54.17;29.92;;;10.70;99.90;;;;;;6277228;22;20007;-74
2022/03/29 04:48:04;;;;;;;58.92;32.20;;;10.80;99.90;;;;;;6306767;22;20006;-74
2022/03/29 04:50:30;;;;;;;63.10;32.90;;;10.70;99.90;;;;;;6305396;22;20003;-74
2022/03/29 04:52:56;;;;;;;62.10;32.00;;;10.80;99.90;;;;;;6306426;22;20003;-73
2022/03/29 04:55:22;;;;;;;57.00;31.02;;;10.70;99.90;;;;;;6304981;22;20006;-74
2022/03/29 04:57:50;;;;;;;59.05;31.35;;;10.50;99.90;;;;;;6305166;22;20420;-74
2022/03/29 05:00:20;;;;;;;53.30;29.63;;;10.50;99.90;;;;;;6306736;22;20003;-74
2022/03/29 05:02:46;;;;;;;53.15;30.17;;;10.50;99.90;;;;;;6306235;22;20092;-73
2022/03/29 05:05:13;;;;;;;58.03;30.52;;;10.50;99.90;;;;;;6277669;22;20290;-74
2022/03/29 05:07:40;;;;;;;58.05;31.50;;;10.50;99.90;;;;;;6306556;22;20075;-74
2022/03/29 05:10:10;;;;;;;60.38;34.00;;;10.50;99.90;;;;;;6305239;22;19995;-74
2022/03/29 05:12:49;;;;;;;57.67;32.40;;;10.50;99.90;;;;;;6306033;22;20332;-74
2022/03/29 05:15:17;;;;;;;54.28;30.63;;;10.40;99.90;;;;;;6278323;22;20016;-73
2022/03/29 05:17:43;;;;;;;59.00;29.30;;;10.40;99.90;;;;;;6306486;22;19996;-74
2022/03/29 05:20:11;;;;;;;58.13;31.00;;;10.40;99.90;;;;;;6306912;22;20136;-74
2022/03/29 05:22:45;;;;;;;59.10;31.88;;;10.30;99.90;;;;;;6279694;22;20006;-73
2022/03/29 05:25:13;;;;;;;56.63;30.80;;;10.30;99.90;;;;;;6279581;22;20140;-74
2022/03/29 05:27:39;;;;;;;64.35;31.48;;;10.30;99.90;;;;;;6308422;22;20023;-74
2022/03/29 05:30:06;;;;;;;62.67;33.15;;;10.30;99.90;;;;;;6307403;22;20006;-74
2022/03/29 05:32:32;;;;;;;56.40;31.33;;;10.20;99.90;;;;;;6307728;22;20002;-74
2022/03/29 05:34:57;;;;;;;57.20;30.83;;;10.20;99.90;;;;;;6307648;22;19996;-74
2022/03/29 05:37:23;;;;;;;59.28;31.58;;;10.20;99.90;;;;;;6307532;22;20480;-74
2022/03/29 05:39:49;;;;;;;55.30;32.00;;;10.20;99.90;;;;;;6308398;22;20417;-73
2022/03/29 05:42:14;;;;;;;59.50;31.88;;;10.20;99.90;;;;;;6306107;22;20316;-73
2022/03/29 05:44:40;;;;;;;58.22;32.15;;;10.20;99.90;;;;;;6308093;22;20417;-73
2022/03/29 05:49:52;;;;;;;58.00;31.60;;;10.20;99.90;;;;;;6308408;22;20018;-73
2022/03/29 05:52:21;;;;;;;58.25;30.88;;;10.20;99.90;;;;;;6308052;22;20298;-74
2022/03/29 05:54:47;;;;;;;61.95;32.20;;;10.20;99.90;;;;;;6306758;22;20425;-74
2022/03/29 05:57:17;;;;;;;62.38;33.65;;;10.00;99.90;;;;;;6308050;22;20071;-74
2022/03/29 05:59:46;;;;;;;60.03;34.25;;;10.10;99.90;;;;;;6308392;22;20316;-73
2022/03/29 06:02:12;;;;;;;60.75;31.63;;;10.10;99.90;;;;;;6308103;22;20038;-73
2022/03/29 06:04:39;;;;;;;64.05;35.47;;;10.00;99.90;;;;;;6306773;22;20417;-73
2022/03/29 06:07:06;;;;;;;62.70;33.03;;;10.10;99.90;;;;;;6307435;22;20003;-73
2022/03/29 06:09:35;;;;;;;61.42;34.00;;;10.10;99.90;;;;;;6278872;22;20007;-74
2022/03/29 06:12:02;;;;;;;66.22;35.08;;;10.10;99.90;;;;;;6308292;22;20007;-73
2022/03/29 06:14:28;;;;;;;61.10;33.78;;;10.10;99.90;;;;;;6306576;22;20007;-74
2022/03/29 06:16:55;;;;;;;61.17;33.67;;;10.10;99.90;;;;;;6307698;22;20000;-74
2022/03/29 06:19:21;;;;;;;63.38;34.63;;;10.00;99.90;;;;;;6279149;22;20004;-74
2022/03/29 06:21:48;;;;;;;69.15;37.05;;;10.00;99.90;;;;;;6307994;22;20078;-74
2022/03/29 06:24:13;;;;;;;68.07;37.75;;;10.10;99.90;;;;;;6307943;22;20431;-74
2022/03/29 06:26:39;;;;;;;74.47;40.55;;;10.10;99.90;;;;;;6308465;22;19999;-74
2022/03/29 06:29:06;;;;;;;74.60;39.50;;;10.20;99.90;;;;;;6308443;22;20451;-74
2022/03/29 06:31:33;;;;;;;81.32;45.05;;;10.30;99.90;;;;;;6305755;22;20401;-74
2022/03/29 06:33:59;;;;;;;78.93;41.83;;;10.20;99.90;;;;;;6307862;22;20000;-73
2022/03/29 06:36:25;;;;;;;73.65;41.28;;;10.20;99.90;;;;;;6307752;22;19999;-73
2022/03/29 06:38:51;;;;;;;78.05;45.13;;;10.20;99.90;;;;;;6306440;22;20101;-74
2022/03/29 06:41:16;;;;;;;74.28;43.00;;;10.10;99.90;;;;;;6307570;22;20006;-74
2022/03/29 06:43:42;;;;;;;80.93;44.47;;;10.20;99.90;;;;;;6306585;22;20011;-74
2022/03/29 06:46:09;;;;;;;74.50;42.15;;;10.00;99.90;;;;;;6307462;22;20088;-74
2022/03/29 06:48:41;;;;;;;75.25;41.38;;;9.90;99.90;;;;;;6306369;22;19999;-73
2022/03/29 06:51:09;;;;;;;77.00;42.38;;;9.90;99.90;;;;;;6307786;22;20034;-73
2022/03/29 06:53:35;;;;;;;77.55;42.85;;;9.80;99.90;;;;;;6304907;22;20010;-74
2022/03/29 06:56:02;;;;;;;81.03;45.15;;;9.70;99.90;;;;;;6307657;22;20006;-74
2022/03/29 06:58:28;;;;;;;87.10;48.03;;;9.60;99.90;;;;;;6306294;22;20003;-74
2022/03/29 07:00:54;;;;;;;77.43;43.40;;;9.50;99.90;;;;;;6307165;22;19999;-73
2022/03/29 07:03:21;;;;;;;82.45;44.72;;;9.50;99.90;;;;;;6306600;22;20007;-74
2022/03/29 07:05:48;;;;;;;76.07;42.13;;;9.50;99.90;;;;;;6305546;22;20078;-73
2022/03/29 07:08:16;;;;;;;81.38;44.00;;;9.20;99.90;;;;;;6307059;22;20053;-73
2022/03/29 07:13:28;;;;;;;80.65;42.55;;;9.40;99.90;;;;;;6306753;22;20348;-74
2022/03/29 07:15:53;;;;;;;84.95;45.17;;;9.50;99.90;;;;;;6307142;22;20421;-74
2022/03/29 07:18:19;;;;;;;90.88;50.80;;;9.70;99.90;;;;;;6307578;22;20003;-74
2022/03/29 07:20:45;;;;;;;97.28;53.22;;;9.70;99.90;;;;;;6306938;22;20007;-73
2022/03/29 07:23:11;;;;;;;88.60;50.83;;;9.90;99.90;;;;;;6306849;22;20003;-73
2022/03/29 07:25:37;;;;;;;84.95;47.63;;;10.10;99.90;;;;;;6278143;22;20007;-74
2022/03/29 07:28:04;;;;;;;92.18;48.70;;;10.30;99.90;;;;;;6279251;22;20004;-74
2022/03/29 07:30:33;;;;;;;92.63;52.40;;;10.20;99.90;;;;;;6304908;22;20004;-74
2022/03/29 07:32:59;;;;;;;95.57;51.55;;;10.30;99.90;;;;;;6306838;22;20000;-74
2022/03/29 07:35:28;;;;;;;88.22;49.20;;;10.40;99.90;;;;;;6279772;22;20003;-74
2022/03/29 07:37:55;;;;;;;91.10;50.25;;;10.60;99.90;;;;;;6305667;22;20747;-74
2022/03/29 07:40:32;;;;;;;89.50;49.75;;;10.70;99.90;;;;;;6305944;22;20039;-74
2022/03/29 07:42:58;;;;;;;90.45;52.22;;;10.70;99.90;;;;;;6305842;22;20014;-74
2022/03/29 07:45:24;;;;;;;89.60;52.53;;;10.80;99.90;;;;;;6276584;22;20344;-74
2022/03/29 07:47:55;;;;;;;85.35;48.15;;;10.90;99.90;;;;;;6306562;22;20101;-74
2022/03/29 07:50:22;;;;;;;90.85;49.60;;;10.90;99.90;;;;;;6306570;22;20049;-74
2022/03/29 07:52:47;;;;;;;86.53;47.97;;;11.00;99.90;;;;;;6304988;22;20089;-74
2022/03/29 07:55:13;;;;;;;88.65;49.22;;;11.10;99.90;;;;;;6306447;22;19996;-74
2022/03/29 07:57:40;;;;;;;93.03;52.03;;;11.10;99.90;;;;;;6278423;22;20019;-74
2022/03/29 08:02:53;;;;;;;83.65;48.13;;;11.00;99.90;;;;;;6306241;22;20018;-74
2022/03/29 08:05:19;;;;;;;88.88;49.70;;;10.90;99.90;;;;;;6304207;22;20033;-74
2022/03/29 08:07:45;;;;;;;89.10;52.03;;;11.10;99.90;;;;;;6278635;22;20098;-74
2022/03/29 08:10:12;;;;;;;93.03;53.03;;;11.20;99.90;;;;;;6305145;22;20070;-74
2022/03/29 08:12:39;;;;;;;95.63;54.38;;;11.30;99.90;;;;;;6306560;22;20006;-74
2022/03/29 08:15:06;;;;;;;95.05;53.88;;;11.40;99.90;;;;;;6277373;22;20090;-73
2022/03/29 08:17:33;;;;;;;99.43;55.00;;;11.40;99.90;;;;;;6279551;22;20301;-74
2022/03/29 08:19:59;;;;;;;96.13;53.83;;;11.70;99.90;;;;;;6305781;22;20022;-74
2022/03/29 08:22:24;;;;;;;101.78;53.35;;;11.80;99.90;;;;;;6306004;22;20000;-74
2022/03/29 08:24:50;;;;;;;101.43;55.05;;;11.70;99.90;;;;;;6278092;22;20316;-74
2022/03/29 08:27:16;;;;;;;103.78;56.15;;;11.70;99.90;;;;;;6306871;22;20014;-74
2022/03/29 08:29:43;;;;;;;103.90;53.95;;;11.80;99.90;;;;;;6304524;22;20003;-74
2022/03/29 08:32:09;;;;;;;94.30;52.33;;;11.80;99.90;;;;;;6306693;22;20078;-74
2022/03/29 08:34:34;;;;;;;94.57;50.88;;;11.80;99.90;;;;;;6305826;22;20035;-74
2022/03/29 08:37:01;;;;;;;91.13;50.38;;;11.90;99.90;;;;;;6279520;22;20413;-75
2022/03/29 08:39:27;;;;;;;97.97;54.90;;;11.90;99.90;;;;;;6304760;22;20049;-74
2022/03/29 08:42:07;;;;;;;98.03;54.78;;;11.90;99.90;;;;;;6306250;22;19995;-75
2022/03/29 08:44:33;;;;;;;97.13;52.40;;;12.10;99.90;;;;;;6305196;22;20021;-74
2022/03/29 08:47:00;;;;;;;106.30;56.08;;;11.90;99.90;;;;;;6279167;22;20090;-74
2022/03/29 08:49:27;;;;;;;112.63;56.70;;;11.70;99.90;;;;;;6275934;22;20493;-74
2022/03/29 08:51:54;;;;;;;121.05;62.33;;;11.70;99.90;;;;;;6306135;22;20006;-74
2022/03/29 08:54:20;;;;;;;125.45;62.85;;;11.70;99.90;;;;;;6277239;22;20052;-74
2022/03/29 08:56:46;;;;;;;124.28;61.85;;;11.80;99.90;;;;;;6305715;22;19996;-74
2022/03/29 08:59:12;;;;;;;132.00;67.32;;;11.80;99.90;;;;;;6308110;22;20006;-74
2022/03/29 09:01:38;;;;;;;131.05;63.70;;;11.80;99.90;;;;;;6281212;22;20034;-74
2022/03/29 09:04:15;;;;;;;125.32;62.95;;;11.80;99.90;;;;;;6306696;22;19999;-74
2022/03/29 09:06:50;;;;;;;132.10;65.43;;;11.90;99.90;;;;;;6281123;22;20007;-74
2022/03/29 09:09:30;;;;;;;130.77;65.15;;;11.90;99.90;;;;;;6306199;22;20007;-74
2022/03/29 09:12:12;;;;;;;129.13;60.65;;;12.10;99.90;;;;;;6308246;22;20011;-74
2022/03/29 09:14:57;;;;;;;128.25;63.25;;;12.10;99.90;;;;;;6308685;22;20011;-74
2022/03/29 09:17:35;;;;;;;121.30;61.03;;;12.10;99.90;;;;;;6306674;22;20005;-74
2022/03/29 09:20:21;;;;;;;140.43;68.72;;;11.90;99.90;;;;;;6307819;22;19999;-74
2022/03/29 09:22:55;;;;;;;140.02;66.28;;;12.00;99.90;;;;;;6309032;22;20022;-74
2022/03/29 09:25:33;;;;;;;136.40;67.38;;;12.00;99.90;;;;;;6308353;22;20052;-74
2022/03/29 09:28:02;;;;;;;133.65;63.03;;;11.90;99.90;;;;;;6306975;22;20000;-74
2022/03/29 09:30:38;;;;;;;130.73;65.03;;;12.00;99.90;;;;;;6307939;22;20070;-74
2022/03/29 09:33:31;;;;;;;133.45;65.18;;;12.00;99.90;;;;;;6278768;22;20373;-74
2022/03/29 09:36:10;;;;;;;138.98;66.25;;;12.00;99.90;;;;;;6295893;22;20057;-74
2022/03/29 09:38:44;;;;;;;137.27;64.35;;;11.90;99.90;;;;;;6278871;22;20385;-74
2022/03/29 09:41:28;;;;;;;141.82;68.80;;;12.10;99.90;;;;;;6307457;22;20003;-74
2022/03/29 09:44:07;;;;;;;143.15;66.40;;;12.30;99.90;;;;;;6307255;22;20398;-75
2022/03/29 09:46:58;;;;;;;149.38;69.20;;;12.30;99.90;;;;;;6280347;22;20014;-74
2022/03/29 09:49:25;;;;;;;149.88;67.03;;;12.50;99.90;;;;;;6279394;22;20372;-74
2022/03/29 09:52:15;;;;;;;147.43;69.75;;;12.60;99.90;;;;;;6307474;22;20006;-74
2022/03/29 09:54:42;;;;;;;148.77;68.28;;;12.80;99.90;;;;;;6281004;22;19999;-74
2022/03/29 09:57:09;;;;;;;141.80;68.53;;;12.80;99.90;;;;;;6307920;22;20000;-74
2022/03/29 09:59:48;;;;;;;134.10;63.55;;;12.80;99.90;;;;;;6279432;22;20332;-74
2022/03/29 10:02:13;;;;;;;145.18;69.07;;;12.70;99.90;;;;;;6307139;22;20015;-74
2022/03/29 10:04:40;;;;;;;130.45;62.42;;;12.80;99.90;;;;;;6308369;22;20003;-74
2022/03/29 10:07:09;;;;;;;131.02;62.67;;;13.00;99.90;;;;;;6279424;22;20109;-75
2022/03/29 10:09:38;;;;;;;131.25;61.67;;;13.10;99.90;;;;;;6307822;22;20453;-74
2022/03/29 10:12:06;;;;;;;133.07;64.50;;;13.10;99.90;;;;;;6307207;22;20003;-74
2022/03/29 10:14:34;;;;;;;129.40;59.33;;;13.10;99.90;;;;;;6307488;22;20007;-74
2022/03/29 10:17:01;;;;;;;120.15;58.20;;;12.80;99.90;;;;;;6308032;22;19999;-74
2022/03/29 10:19:27;;;;;;;129.40;61.03;;;12.90;99.90;;;;;;6280810;22;19999;-74
2022/03/29 10:21:55;;;;;;;129.93;60.38;;;13.10;99.90;;;;;;6306970;22;20029;-74
2022/03/29 10:24:22;;;;;;;131.68;65.38;;;13.40;99.90;;;;;;6308106;22;20053;-74
2022/03/29 10:26:50;;;;;;;119.25;57.83;;;13.80;99.90;;;;;;6306546;22;20011;-74
2022/03/29 10:29:17;;;;;;;126.43;58.80;;;13.90;99.90;;;;;;6307789;22;20177;-74
2022/03/29 10:31:53;;;;;;;108.90;57.20;;;14.10;99.90;;;;;;6280037;22;20001;-74
2022/03/29 10:34:24;;;;;;;115.38;58.97;;;14.20;99.90;;;;;;6307494;22;20003;-74
2022/03/29 10:37:11;;;;;;;101.32;54.28;;;14.40;99.90;;;;;;6307872;22;20079;-74
2022/03/29 10:39:47;;;;;;;102.85;53.65;;;14.20;99.90;;;;;;6307999;22;20324;-74
2022/03/29 10:42:33;;;;;;;108.13;53.88;;;14.10;99.90;;;;;;6307282;22;20010;-74
2022/03/29 10:45:12;;;;;;;113.82;54.60;;;14.10;99.90;;;;;;6305674;22;20400;-75
2022/03/29 10:47:39;;;;;;;108.50;53.95;;;14.10;99.90;;;;;;6279672;22;20542;-74
2022/03/29 10:50:08;;;;;;;117.88;55.92;;;14.10;99.90;;;;;;6307203;22;20383;-75
2022/03/29 10:52:39;;;;;;;107.30;52.75;;;14.00;99.90;;;;;;6307129;22;20484;-74
2022/03/29 10:55:18;;;;;;;104.20;52.85;;;14.00;99.90;;;;;;6307393;22;20090;-75
2022/03/29 10:58:05;;;;;;;107.95;53.70;;;14.00;99.90;;;;;;6279507;22;20002;-74
2022/03/29 11:00:31;;;;;;;109.13;54.30;;;14.00;99.90;;;;;;6307156;22;20026;-74
2022/03/29 11:03:11;;;;;;;122.43;61.30;;;14.40;99.90;;;;;;6305881;22;20468;-75
2022/03/29 11:06:10;;;;;;;116.50;55.67;;;14.80;99.90;;;;;;6277664;22;20033;-75
2022/03/29 11:08:41;;;;;;;113.03;51.97;;;14.80;99.90;;;;;;6305534;22;20010;-75
2022/03/29 11:11:08;;;;;;;110.78;52.22;;;14.70;99.90;;;;;;6304906;22;19999;-74
2022/03/29 11:13:38;;;;;;;115.38;56.55;;;14.90;99.90;;;;;;6305636;22;20003;-74
2022/03/29 11:16:30;;;;;;;107.45;51.53;;;15.10;99.90;;;;;;6306709;22;20023;-75
2022/03/29 11:18:57;;;;;;;106.80;55.53;;;15.00;99.90;;;;;;6305447;22;20013;-75
2022/03/29 11:21:32;;;;;;;97.15;53.05;;;15.00;99.90;;;;;;6307041;22;19999;-75
2022/03/29 11:24:00;;;;;;;96.65;49.83;;;15.10;99.90;;;;;;6306138;22;20074;-74
2022/03/29 11:26:27;;;;;;;89.43;47.40;;;15.10;99.90;;;;;;6307409;22;20010;-74
2022/03/29 11:29:00;;;;;;;89.78;46.67;;;15.00;99.90;;;;;;6277926;22;20010;-74
2022/03/29 11:31:39;;;;;;;92.97;48.53;;;14.60;99.90;;;;;;6279220;22;20367;-74
2022/03/29 11:34:09;;;;;;;76.65;45.22;;;14.60;99.90;;;;;;6306540;22;20003;-74
2022/03/29 11:36:37;;;;;;;89.07;47.50;;;14.80;99.90;;;;;;6305466;22;20485;-74
2022/03/29 11:39:26;;;;;;;78.97;46.97;;;14.90;99.90;;;;;;6306045;22;20328;-74
2022/03/29 11:41:53;;;;;;;85.78;47.13;;;14.90;99.90;;;;;;6306941;22;20057;-74
2022/03/29 11:44:22;;;;;;;89.50;52.03;;;14.90;99.90;;;;;;6304238;22;20011;-74
2022/03/29 11:46:51;;;;;;;88.47;48.55;;;14.80;99.90;;;;;;6307120;22;20003;-74
2022/03/29 11:49:18;;;;;;;89.72;51.17;;;14.80;99.90;;;;;;6306141;22;20007;-74
2022/03/29 11:52:02;;;;;;;86.85;48.53;;;14.80;99.90;;;;;;6307234;22;20006;-74
2022/03/29 11:54:27;;;;;;;86.47;48.58;;;14.90;99.90;;;;;;6306652;22;20022;-74
2022/03/29 11:56:53;;;;;;;84.15;46.35;;;15.00;99.90;;;;;;6306494;22;20404;-74
2022/03/29 11:59:19;;;;;;;88.07;50.15;;;15.00;99.90;;;;;;6306341;22;19995;-74
2022/03/29 12:01:44;;;;;;;82.05;47.00;;;14.70;99.90;;;;;;6304430;22;20003;-74
2022/03/29 12:04:11;;;;;;;84.13;47.47;;;15.00;99.90;;;;;;6305055;22;20034;-74
2022/03/29 12:06:52;;;;;;;82.22;48.28;;;15.00;99.90;;;;;;6307132;22;20006;-74
2022/03/29 12:09:23;;;;;;;81.07;46.50;;;15.00;99.90;;;;;;6305326;22;20003;-74
2022/03/29 12:11:49;;;;;;;78.22;45.08;;;14.90;99.90;;;;;;6279475;22;20068;-74
2022/03/29 12:14:18;;;;;;;79.95;45.95;;;14.80;99.90;;;;;;6306362;22;20087;-74
2022/03/29 12:16:49;;;;;;;84.70;48.63;;;15.00;99.90;;;;;;6279288;22;19999;-73
2022/03/29 12:19:17;;;;;;;81.32;49.80;;;15.30;99.90;;;;;;6304356;22;20057;-74
2022/03/29 12:21:51;;;;;;;84.50;47.13;;;15.20;99.90;;;;;;6305055;22;20413;-74
2022/03/29 12:24:18;;;;;;;82.32;49.10;;;15.30;99.90;;;;;;6305821;22;20057;-74
2022/03/29 12:26:48;;;;;;;80.32;47.53;;;15.30;99.90;;;;;;6306092;22;20003;-74
2022/03/29 12:29:21;;;;;;;79.32;46.25;;;15.50;99.90;;;;;;6306765;22;20025;-74
2022/03/29 12:31:49;;;;;;;71.78;43.63;;;15.50;99.90;;;;;;6305198;22;20004;-74
2022/03/29 12:34:21;;;;;;;72.50;45.30;;;15.60;99.90;;;;;;6307909;22;20003;-74
2022/03/29 12:36:55;;;;;;;79.70;45.47;;;15.60;99.90;;;;;;6307493;22;20006;-74
2022/03/29 12:39:21;;;;;;;77.78;46.42;;;15.40;99.90;;;;;;6308611;22;20322;-74
2022/03/29 12:41:53;;;;;;;79.07;48.80;;;15.30;99.90;;;;;;6308282;22;20003;-74
2022/03/29 12:44:36;;;;;;;78.97;48.17;;;15.40;99.90;;;;;;6308633;22;20014;-74